NCAR-RAP Real-Time Weather Data

Output produced by METARs form (08 May 2021  01:03 UTC)
found at http://weather.rap.ucar.edu/surface/
 
KCMI 080053Z 36009KT 10SM CLR 13/M02 A2999 RMK AO2 SLP158 T01331017
KCMI 072353Z 34018G26KT 10SM CLR 16/M02 A2998 RMK AO2 PK WND 32029/2318 SLP153 T01611022 10222 20161 53012
KCMI 072253Z 31021G28KT 10SM CLR 18/M01 A2996 RMK AO2 PK WND 34030/2240 SLP148 T01831006
KCMI 072153Z 31019G31KT 10SM FEW080 19/M01 A2995 RMK AO2 PK WND 31034/2103 SLP144 T01941006
KCMI 072053Z 32021G34KT 10SM SCT085 19/M01 A2994 RMK AO2 PK WND 32036/1958 SLP140 T01941011 55006
KCMI 071953Z 31026G35KT 10SM FEW080 FEW095 22/02 A2994 RMK AO2 PK WND 28038/1900 SLP137 T02170017
KCMI 071853Z 28025G33KT 10SM SCT075 SCT110 21/03 A2994 RMK AO2 PK WND 27035/1834 SLP138 T02110028
KCMI 071753Z 27024G32KT 10SM BKN110 21/03 A2996 RMK AO2 PK WND 27032/1753 SLP145 T02060033 10211 20061 58026
KCMI 071653Z 24018G27KT 10SM FEW100 19/01 A2999 RMK AO2 PK WND 23027/1644 SLP156 T01890011
KCMI 071553Z 24013KT 10SM FEW043 SCT120 18/01 A3002 RMK AO2 SLP165 T01780011
KCMI 071453Z 26012KT 10SM FEW100 17/02 A3004 RMK AO2 SLP173 T01670017 58004
KCMI 071353Z 27011KT 10SM SCT100 14/05 A3006 RMK AO2 SLP180 T01390050
KCMI 071253Z 27008KT 10SM CLR 10/06 A3006 RMK AO2 SLP182 T01000056
KCMI 071153Z 27005KT 10SM FEW120 06/04 A3005 RMK AO2 SLP179 70001 T00610044 10072 20033 53003
KCMI 071053Z 23006KT 9SM CLR 04/02 A3003 RMK AO2 SLP172 T00390022